createdAt,value
2019-01-04T00:01:19.583Z,9.73
2019-01-04T00:03:48.314Z,9.73
2019-01-04T00:06:16.993Z,10.07
2019-01-04T00:08:45.718Z,9.57
2019-01-04T00:11:14.412Z,10.17
2019-01-04T00:13:43.198Z,10.20
2019-01-04T00:16:11.891Z,10.20
2019-01-04T00:18:40.670Z,9.57
2019-01-04T00:21:09.356Z,11.57
2019-01-04T00:23:38.228Z,10.80
2019-01-04T00:26:06.918Z,11.50
2019-01-04T00:28:35.646Z,10.40
2019-01-04T00:31:04.393Z,10.77
2019-01-04T00:33:33.148Z,11.27
2019-01-04T00:36:01.909Z,10.23
2019-01-04T00:38:30.602Z,10.77
2019-01-04T00:40:59.393Z,10.70
2019-01-04T00:43:28.188Z,10.77
2019-01-04T00:45:56.962Z,11.13
2019-01-04T00:48:25.815Z,11.20
2019-01-04T00:50:54.607Z,11.73
2019-01-04T00:53:23.386Z,11.03
2019-01-04T00:56:04.145Z,10.83
2019-01-04T00:58:53.805Z,10.53
2019-01-04T01:01:49.537Z,11.17
2019-01-04T01:04:24.115Z,10.50
2019-01-04T01:07:10.586Z,11.03
2019-01-04T01:10:09.337Z,11.70
2019-01-04T01:12:46.258Z,10.63
2019-01-04T01:15:49.293Z,11.47
2019-01-04T01:18:29.864Z,11.80
2019-01-04T01:21:21.934Z,12.43
2019-01-04T01:24:11.516Z,12.20
2019-01-04T01:26:51.910Z,11.27
2019-01-04T01:29:48.764Z,11.20
2019-01-04T01:32:35.166Z,12.03
2019-01-04T01:35:15.873Z,11.77
2019-01-04T01:37:50.565Z,12.37
2019-01-04T01:40:56.697Z,12.13
2019-01-04T01:43:30.917Z,12.40
2019-01-04T01:46:22.115Z,12.50
2019-01-04T01:49:02.327Z,11.77
2019-01-04T01:51:34.113Z,12.63
2019-01-04T01:54:02.813Z,13.33
2019-01-04T01:56:31.504Z,13.50
2019-01-04T01:59:00.222Z,14.33
2019-01-04T02:01:28.923Z,14.00
2019-01-04T02:03:57.637Z,12.77
2019-01-04T02:06:26.370Z,11.67
2019-01-04T02:08:55.077Z,13.13
2019-01-04T02:11:23.778Z,12.63
2019-01-04T02:13:52.493Z,12.30
2019-01-04T02:16:21.181Z,12.43
2019-01-04T02:18:49.980Z,12.50
2019-01-04T02:21:18.741Z,11.80
2019-01-04T02:23:47.452Z,13.47
2019-01-04T02:26:16.140Z,12.43
2019-01-04T02:28:44.838Z,13.10
2019-01-04T02:31:13.618Z,13.73
2019-01-04T02:33:42.336Z,13.40
2019-01-04T02:36:11.038Z,13.73
2019-01-04T02:38:39.749Z,14.23
2019-01-04T02:41:08.454Z,14.53
2019-01-04T02:43:37.161Z,13.83
2019-01-04T02:46:05.869Z,13.87
2019-01-04T02:48:34.584Z,15.00
2019-01-04T02:51:03.337Z,14.97
2019-01-04T02:53:32.022Z,15.37
2019-01-04T02:56:00.741Z,14.60
2019-01-04T02:58:29.435Z,16.20
2019-01-04T03:00:58.147Z,15.80
2019-01-04T03:03:26.846Z,15.63
2019-01-04T03:05:55.626Z,15.77
2019-01-04T03:08:24.317Z,16.50
2019-01-04T03:10:53.110Z,16.83
2019-01-04T03:13:21.800Z,16.57
2019-01-04T03:15:50.530Z,17.13
2019-01-04T03:18:19.225Z,16.17
2019-01-04T03:20:47.949Z,17.97
2019-01-04T03:23:16.638Z,17.40
2019-01-04T03:25:45.363Z,16.70
2019-01-04T03:28:14.056Z,17.73
2019-01-04T03:30:42.804Z,17.70
2019-01-04T03:33:11.583Z,17.17
2019-01-04T03:35:40.293Z,17.30
2019-01-04T03:38:09.002Z,16.23
2019-01-04T03:40:37.770Z,18.73
2019-01-04T03:43:06.572Z,17.50
2019-01-04T03:45:35.258Z,18.63
2019-01-04T03:48:04.055Z,18.33
2019-01-04T03:50:32.814Z,16.97
2019-01-04T03:53:01.550Z,18.13
2019-01-04T03:55:30.317Z,19.63
2019-01-04T03:57:59.023Z,17.03
2019-01-04T04:00:27.729Z,19.17
2019-01-04T04:02:56.465Z,18.37
2019-01-04T04:05:25.297Z,20.33
2019-01-04T04:07:54.014Z,19.40
2019-01-04T04:10:22.723Z,18.70
2019-01-04T04:12:51.453Z,19.10
2019-01-04T04:15:20.153Z,18.33
2019-01-04T04:17:48.882Z,20.70
2019-01-04T04:20:17.611Z,19.63
2019-01-04T04:22:46.325Z,18.93
2019-01-04T04:25:15.018Z,18.23
2019-01-04T04:27:43.752Z,18.43
2019-01-04T04:30:12.443Z,17.67
2019-01-04T04:32:41.135Z,18.37
2019-01-04T04:35:09.862Z,17.63
2019-01-04T04:37:38.552Z,18.40
2019-01-04T04:40:07.320Z,18.20
2019-01-04T04:42:36.049Z,17.67
2019-01-04T04:45:05.031Z,17.50
2019-01-04T04:47:33.727Z,16.63
2019-01-04T04:50:02.538Z,17.57
2019-01-04T04:52:31.241Z,16.97
2019-01-04T04:54:59.955Z,17.67
2019-01-04T04:57:28.662Z,16.87
2019-01-04T04:59:57.374Z,17.00
2019-01-04T05:02:26.074Z,15.80
2019-01-04T05:04:54.879Z,16.07
2019-01-04T05:07:23.574Z,17.17
2019-01-04T05:09:52.300Z,17.97
2019-01-04T05:12:20.999Z,18.70
2019-01-04T05:14:49.797Z,17.87
2019-01-04T05:17:18.513Z,17.97
2019-01-04T05:19:47.261Z,18.17
2019-01-04T05:22:16.017Z,17.67
2019-01-04T05:24:44.784Z,18.03
2019-01-04T05:27:13.504Z,17.23
2019-01-04T05:29:42.193Z,18.67
2019-01-04T05:32:10.915Z,17.47
2019-01-04T05:34:39.624Z,17.83
2019-01-04T05:37:08.405Z,17.23
2019-01-04T05:39:37.098Z,17.57
2019-01-04T05:42:05.825Z,18.83
2019-01-04T05:44:34.514Z,17.77
2019-01-04T05:47:03.230Z,18.07
2019-01-04T05:49:31.924Z,17.17
2019-01-04T05:52:00.652Z,18.50
2019-01-04T05:54:29.343Z,17.10
2019-01-04T05:56:58.053Z,16.50
2019-01-04T05:59:26.745Z,16.23
2019-01-04T06:01:55.464Z,15.93
2019-01-04T06:04:24.201Z,17.77
2019-01-04T06:06:52.914Z,17.73
2019-01-04T06:09:21.766Z,17.53
2019-01-04T06:11:50.459Z,16.97
2019-01-04T06:14:19.181Z,16.30
2019-01-04T06:16:47.874Z,16.03
2019-01-04T06:19:16.593Z,15.53
2019-01-04T06:21:45.296Z,16.17
2019-01-04T06:24:14.087Z,16.20
2019-01-04T06:26:42.783Z,15.83
2019-01-04T06:29:11.501Z,16.07
2019-01-04T06:31:40.209Z,15.93
2019-01-04T06:34:08.921Z,15.20
2019-01-04T06:36:37.685Z,15.03
2019-01-04T06:39:06.764Z,15.40
2019-01-04T06:41:35.457Z,16.37
2019-01-04T06:44:04.169Z,15.40
2019-01-04T06:46:35.285Z,16.03
2019-01-04T06:49:05.549Z,15.43
2019-01-04T06:51:34.242Z,16.13
2019-01-04T06:54:02.929Z,15.70
2019-01-04T06:56:31.648Z,15.60
2019-01-04T06:59:00.345Z,15.83
2019-01-04T07:01:29.065Z,14.83
2019-01-04T07:03:57.749Z,14.47
2019-01-04T07:06:26.477Z,14.63
2019-01-04T07:08:55.177Z,14.30
2019-01-04T07:11:23.894Z,15.50
2019-01-04T07:13:52.580Z,15.20
2019-01-04T07:16:21.293Z,16.33
2019-01-04T07:18:49.993Z,17.07
2019-01-04T07:21:18.701Z,17.47
2019-01-04T07:23:47.385Z,17.40
2019-01-04T07:26:16.117Z,18.27
2019-01-04T07:28:46.102Z,19.23
2019-01-04T07:31:14.923Z,17.60
2019-01-04T07:33:43.670Z,17.40
2019-01-04T07:36:12.399Z,17.57
2019-01-04T07:38:41.148Z,16.47
2019-01-04T07:41:09.870Z,18.57
2019-01-04T07:43:38.574Z,18.37
2019-01-04T07:46:07.281Z,19.63
2019-01-04T07:48:36.010Z,19.33
2019-01-04T07:51:04.701Z,18.17
2019-01-04T07:53:33.434Z,19.43
2019-01-04T07:56:02.192Z,21.13
2019-01-04T07:58:31.002Z,22.17
2019-01-04T08:00:59.716Z,26.70
2019-01-04T08:03:28.462Z,28.63
2019-01-04T08:05:57.301Z,30.40
2019-01-04T08:08:26.012Z,26.27
2019-01-04T08:10:54.746Z,28.23
2019-01-04T08:13:23.520Z,28.47
2019-01-04T08:15:52.312Z,29.87
2019-01-04T08:18:21.013Z,29.87
2019-01-04T08:20:49.815Z,28.27
2019-01-04T08:23:18.528Z,29.00
2019-01-04T08:25:47.275Z,28.30
2019-01-04T08:28:15.980Z,29.47
2019-01-04T08:30:44.730Z,28.10
2019-01-04T08:33:13.419Z,29.90
2019-01-04T08:35:42.133Z,27.87
2019-01-04T08:38:10.841Z,27.27
2019-01-04T08:40:39.641Z,28.43
2019-01-04T08:43:08.360Z,29.30
2019-01-04T08:45:37.066Z,29.33
2019-01-04T08:48:05.836Z,29.43
2019-01-04T08:50:34.561Z,29.73
2019-01-04T08:53:03.275Z,28.97
2019-01-04T08:55:32.068Z,29.00
2019-01-04T08:58:00.765Z,30.30
2019-01-04T09:00:29.650Z,31.80
2019-01-04T09:02:58.435Z,31.60
2019-01-04T09:05:27.148Z,30.03
2019-01-04T09:07:55.849Z,29.73
2019-01-04T09:10:24.547Z,29.57
2019-01-04T09:12:53.254Z,29.30
2019-01-04T09:15:21.950Z,30.83
2019-01-04T09:17:50.685Z,32.47
2019-01-04T09:20:19.372Z,28.17
2019-01-04T09:22:48.105Z,29.17
2019-01-04T09:25:16.859Z,28.87
2019-01-04T09:27:45.577Z,28.17
2019-01-04T09:30:14.514Z,29.10
2019-01-04T09:32:43.315Z,29.50
2019-01-04T09:35:12.179Z,28.17
2019-01-04T09:37:40.899Z,28.30
2019-01-04T09:40:11.283Z,29.47
2019-01-04T09:42:40.068Z,28.67
2019-01-04T09:45:09.002Z,27.73
2019-01-04T09:47:37.790Z,25.40
2019-01-04T09:50:07.428Z,26.53
2019-01-04T09:52:36.232Z,25.83
2019-01-04T09:55:05.547Z,26.67
2019-01-04T09:57:34.325Z,25.67
2019-01-04T10:00:03.963Z,23.23
2019-01-04T10:02:32.682Z,24.67
2019-01-04T10:05:01.385Z,23.63
2019-01-04T10:07:30.184Z,23.27
2019-01-04T10:09:58.906Z,22.07
2019-01-04T10:12:27.624Z,22.97
2019-01-04T10:14:56.354Z,19.30
2019-01-04T10:17:25.052Z,20.03
2019-01-04T10:19:56.473Z,19.47
2019-01-04T10:22:25.189Z,18.07
2019-01-04T10:24:53.902Z,18.30
2019-01-04T10:27:22.597Z,16.10
2019-01-04T10:29:51.384Z,16.77
2019-01-04T10:32:20.175Z,15.63
2019-01-04T10:34:48.893Z,15.37
2019-01-04T10:37:17.622Z,15.87
2019-01-04T10:39:46.412Z,13.67
2019-01-04T10:42:15.124Z,13.13
2019-01-04T10:44:43.841Z,12.80
2019-01-04T10:47:12.541Z,12.00
2019-01-04T10:49:41.297Z,11.50
2019-01-04T10:52:10.010Z,10.93
2019-01-04T10:54:38.797Z,9.97
2019-01-04T10:57:07.535Z,9.13
2019-01-04T10:59:36.254Z,10.00
2019-01-04T11:02:05.128Z,9.87
2019-01-04T11:04:33.902Z,9.83
2019-01-04T11:07:02.760Z,9.87
2019-01-04T11:09:31.526Z,9.50
2019-01-04T11:12:00.253Z,10.53
2019-01-04T11:14:28.956Z,10.00
2019-01-04T11:16:58.380Z,10.67
2019-01-04T11:19:27.073Z,11.80
2019-01-04T11:22:14.941Z,12.27
2019-01-04T11:24:52.217Z,11.40
2019-01-04T11:27:21.114Z,11.63
2019-01-04T11:29:55.725Z,13.13
2019-01-04T11:32:30.290Z,13.40
2019-01-04T11:35:16.943Z,12.13
2019-01-04T11:38:09.142Z,12.93
2019-01-04T11:41:00.182Z,13.13
2019-01-04T11:43:48.486Z,13.20
2019-01-04T11:46:26.295Z,13.23
2019-01-04T11:49:01.053Z,14.57
2019-01-04T11:51:38.637Z,15.57
2019-01-04T11:54:08.274Z,16.07
2019-01-04T11:56:37.029Z,16.50
2019-01-04T11:59:06.767Z,16.20
2019-01-04T12:01:37.024Z,18.00
2019-01-04T12:04:05.822Z,18.87
2019-01-04T12:06:34.613Z,18.67
2019-01-04T12:09:05.542Z,20.30
2019-01-04T12:11:34.344Z,20.10
2019-01-04T12:14:03.138Z,22.53
2019-01-04T12:16:31.867Z,23.10
2019-01-04T12:19:00.693Z,23.13
2019-01-04T12:21:29.432Z,24.03
2019-01-04T12:23:58.897Z,25.83
2019-01-04T12:26:27.657Z,26.53
2019-01-04T12:28:56.465Z,26.20
2019-01-04T12:31:25.222Z,27.57
2019-01-04T12:33:53.946Z,27.20
2019-01-04T12:36:22.680Z,27.87
2019-01-04T12:38:51.500Z,27.57
2019-01-04T12:41:20.207Z,28.57
2019-01-04T12:43:48.909Z,28.67
2019-01-04T12:46:17.703Z,31.47
2019-01-04T12:48:46.516Z,29.57
2019-01-04T12:51:15.342Z,28.80
2019-01-04T12:53:44.137Z,31.63
2019-01-04T12:56:12.929Z,30.03
2019-01-04T12:58:41.663Z,33.47
2019-01-04T13:01:10.408Z,31.67
2019-01-04T13:03:39.115Z,31.47
2019-01-04T13:06:07.845Z,30.20
2019-01-04T13:08:36.555Z,30.03
2019-01-04T13:11:05.288Z,29.37
2019-01-04T13:13:34.066Z,30.07
2019-01-04T13:16:02.899Z,30.60
2019-01-04T13:18:31.601Z,30.13
2019-01-04T13:21:01.993Z,30.73
2019-01-04T13:23:30.750Z,31.50
2019-01-04T13:26:00.304Z,31.10
2019-01-04T13:28:29.061Z,29.53
2019-01-04T13:30:57.798Z,28.07
2019-01-04T13:33:26.552Z,27.70
2019-01-04T13:35:55.285Z,27.17
2019-01-04T13:38:23.983Z,26.20
2019-01-04T13:40:52.793Z,28.20
2019-01-04T13:43:21.566Z,27.87
2019-01-04T13:45:50.340Z,27.40
2019-01-04T13:48:19.073Z,27.07
2019-01-04T13:50:47.829Z,27.40
2019-01-04T13:53:16.546Z,28.37
2019-01-04T13:55:45.245Z,29.33
2019-01-04T13:58:13.970Z,28.43
2019-01-04T14:00:42.659Z,30.00
2019-01-04T14:03:11.452Z,28.23
2019-01-04T14:05:40.203Z,29.93
2019-01-04T14:08:08.951Z,30.30
2019-01-04T14:10:37.715Z,29.67
2019-01-04T14:13:09.393Z,30.93
2019-01-04T14:15:36.857Z,30.90
2019-01-04T14:18:05.596Z,30.63
2019-01-04T14:20:34.317Z,30.40
2019-01-04T14:23:03.049Z,31.00
2019-01-04T14:25:31.827Z,31.83
2019-01-04T14:28:00.541Z,30.77
2019-01-04T14:30:29.319Z,31.47
2019-01-04T14:32:58.048Z,29.93
2019-01-04T14:35:26.806Z,32.17
2019-01-04T14:37:55.521Z,31.97
2019-01-04T14:40:24.245Z,31.67
2019-01-04T14:42:53.001Z,32.00
2019-01-04T14:45:21.729Z,34.30
2019-01-04T14:47:50.509Z,34.00
2019-01-04T14:50:19.215Z,31.33
2019-01-04T14:52:47.894Z,33.83
2019-01-04T14:55:16.626Z,35.63
2019-01-04T14:57:45.346Z,33.87
2019-01-04T15:00:14.102Z,35.70
2019-01-04T15:02:42.782Z,35.83
2019-01-04T15:05:11.577Z,37.17
2019-01-04T15:07:40.282Z,36.20
2019-01-04T15:10:09.081Z,36.13
2019-01-04T15:12:37.853Z,36.63
2019-01-04T15:15:06.905Z,37.93
2019-01-04T15:17:35.626Z,40.90
2019-01-04T15:20:06.899Z,39.53
2019-01-04T15:22:35.677Z,40.37
2019-01-04T15:25:05.730Z,41.70
2019-01-04T15:27:34.429Z,42.70
2019-01-04T15:30:05.612Z,41.97
2019-01-04T15:32:34.377Z,45.60
2019-01-04T15:35:03.248Z,44.57
2019-01-04T15:37:32.030Z,46.57
2019-01-04T15:40:00.754Z,50.63
2019-01-04T15:42:29.480Z,48.53
2019-01-04T15:44:58.187Z,51.37
2019-01-04T15:47:26.916Z,52.23
2019-01-04T15:49:55.687Z,51.53
2019-01-04T15:52:24.470Z,50.80
2019-01-04T15:54:53.160Z,53.50
2019-01-04T15:57:22.052Z,52.97
2019-01-04T15:59:50.757Z,54.10
2019-01-04T16:02:19.498Z,54.80
2019-01-04T16:04:48.223Z,58.97
2019-01-04T16:07:16.937Z,55.87
2019-01-04T16:09:45.645Z,55.83
2019-01-04T16:12:14.372Z,56.77
2019-01-04T16:14:43.086Z,54.30
2019-01-04T16:17:12.198Z,54.97
2019-01-04T16:19:41.115Z,52.57
2019-01-04T16:22:09.909Z,54.97
2019-01-04T16:24:38.611Z,54.57
2019-01-04T16:27:07.386Z,55.20
2019-01-04T16:29:36.191Z,55.10
2019-01-04T16:32:04.895Z,54.67
2019-01-04T16:34:33.620Z,57.07
2019-01-04T16:37:02.406Z,56.87
2019-01-04T16:39:31.161Z,58.87
2019-01-04T16:41:59.865Z,56.90
2019-01-04T16:44:28.594Z,55.33
2019-01-04T16:46:57.366Z,53.70
2019-01-04T16:49:26.113Z,55.03
2019-01-04T16:51:54.875Z,56.20
2019-01-04T16:54:26.383Z,57.67
2019-01-04T16:56:55.091Z,57.53
2019-01-04T16:59:23.813Z,55.43
2019-01-04T17:01:52.526Z,55.83
2019-01-04T17:04:21.297Z,58.67
2019-01-04T17:06:50.092Z,54.70
2019-01-04T17:09:18.830Z,52.77
2019-01-04T17:11:47.602Z,54.13
2019-01-04T17:14:16.409Z,54.50
2019-01-04T17:16:45.125Z,54.40
2019-01-04T17:19:13.811Z,56.33
2019-01-04T17:21:42.528Z,55.40
2019-01-04T17:24:11.299Z,53.77
2019-01-04T17:26:40.018Z,56.97
2019-01-04T17:29:08.787Z,58.47
2019-01-04T17:31:37.503Z,56.80
2019-01-04T17:34:06.209Z,56.17
2019-01-04T17:36:34.965Z,57.53
2019-01-04T17:39:05.870Z,59.10
2019-01-04T17:41:35.062Z,58.00
2019-01-04T17:44:03.910Z,56.37
2019-01-04T17:46:32.645Z,55.33
2019-01-04T17:49:01.366Z,56.33
2019-01-04T17:51:30.110Z,57.60
2019-01-04T17:53:58.838Z,55.43
2019-01-04T17:56:27.557Z,54.47
2019-01-04T17:58:56.264Z,54.30
2019-01-04T18:01:25.002Z,54.67
2019-01-04T18:03:53.701Z,54.90
2019-01-04T18:06:22.454Z,51.50
2019-01-04T18:08:51.154Z,53.67
2019-01-04T18:11:19.870Z,51.93
2019-01-04T18:13:48.607Z,53.13
2019-01-04T18:16:17.327Z,52.83
2019-01-04T18:18:46.145Z,54.87
2019-01-04T18:21:14.839Z,52.00
2019-01-04T18:23:43.577Z,54.20
2019-01-04T18:26:12.291Z,50.23
2019-01-04T18:28:41.006Z,49.80
2019-01-04T18:31:09.721Z,51.07
2019-01-04T18:33:38.477Z,48.50
2019-01-04T18:36:07.173Z,49.47
2019-01-04T18:38:35.885Z,49.03
2019-01-04T18:41:04.687Z,50.37
2019-01-04T18:43:33.409Z,48.33
2019-01-04T18:46:02.206Z,50.90
2019-01-04T18:48:31.003Z,50.83
2019-01-04T18:50:59.774Z,51.87
2019-01-04T18:53:28.506Z,51.87
2019-01-04T18:55:57.301Z,49.20
2019-01-04T18:58:26.006Z,50.60
2019-01-04T19:00:54.884Z,50.10
2019-01-04T19:03:23.574Z,51.33
2019-01-04T19:05:54.672Z,48.03
2019-01-04T19:08:23.454Z,48.83
2019-01-04T19:10:52.267Z,48.23
2019-01-04T19:13:26.659Z,48.70
2019-01-04T19:15:51.377Z,48.73
2019-01-04T19:18:20.078Z,49.40
2019-01-04T19:20:48.868Z,47.63
2019-01-04T19:23:17.574Z,51.37
2019-01-04T19:25:46.283Z,47.27
2019-01-04T19:28:14.992Z,50.10
2019-01-04T19:30:43.722Z,47.40
2019-01-04T19:33:12.410Z,48.53
2019-01-04T19:35:41.140Z,49.67
2019-01-04T19:38:09.853Z,50.50
2019-01-04T19:40:38.589Z,50.40
2019-01-04T19:43:07.358Z,46.13
2019-01-04T19:45:36.099Z,49.07
2019-01-04T19:48:04.869Z,47.67
2019-01-04T19:50:33.623Z,45.87
2019-01-04T19:53:02.425Z,45.30
2019-01-04T19:55:31.190Z,45.00
2019-01-04T19:57:59.910Z,47.47
2019-01-04T20:00:28.725Z,45.97
2019-01-04T20:02:57.530Z,47.70
2019-01-04T20:05:32.143Z,44.47
2019-01-04T20:08:18.772Z,44.80
2019-01-04T20:11:02.473Z,46.53
2019-01-04T20:13:46.574Z,45.27
2019-01-04T20:16:23.923Z,45.73
2019-01-04T20:18:53.039Z,43.93
2019-01-04T20:21:21.830Z,46.97
2019-01-04T20:23:50.510Z,45.60
2019-01-04T20:26:19.256Z,43.60
2019-01-04T20:28:47.950Z,45.27
2019-01-04T20:31:16.707Z,43.40
2019-01-04T20:33:45.433Z,43.97
2019-01-04T20:36:14.127Z,46.40
2019-01-04T20:38:42.953Z,45.17
2019-01-04T20:41:11.652Z,44.57
2019-01-04T20:43:40.362Z,43.83
2019-01-04T20:46:09.105Z,46.07
2019-01-04T20:48:37.802Z,42.87
2019-01-04T20:51:06.546Z,44.23
2019-01-04T20:53:35.321Z,47.83
2019-01-04T20:56:04.178Z,43.90
2019-01-04T20:58:41.582Z,47.50
2019-01-04T21:01:10.390Z,47.43
2019-01-04T21:03:39.244Z,45.97
2019-01-04T21:06:08.177Z,43.27
2019-01-04T21:08:36.890Z,46.03
2019-01-04T21:11:05.610Z,44.73
2019-01-04T21:13:34.338Z,45.57
2019-01-04T21:16:03.271Z,46.20
2019-01-04T21:18:32.106Z,46.10
2019-01-04T21:21:00.906Z,47.73
2019-01-04T21:23:29.764Z,45.93
2019-01-04T21:25:58.501Z,46.30
2019-01-04T21:28:27.217Z,46.63
2019-01-04T21:30:55.971Z,45.80
2019-01-04T21:33:24.793Z,46.43
2019-01-04T21:35:53.501Z,44.57
2019-01-04T21:38:22.235Z,42.50
2019-01-04T21:40:56.258Z,46.20
2019-01-04T21:43:25.063Z,43.63
2019-01-04T21:45:53.836Z,44.70
2019-01-04T21:48:22.627Z,41.63
2019-01-04T21:50:51.352Z,44.53
2019-01-04T21:53:20.104Z,42.73
2019-01-04T21:55:48.788Z,42.93
2019-01-04T21:58:17.553Z,42.77
2019-01-04T22:00:46.306Z,42.47
2019-01-04T22:03:17.931Z,40.73
2019-01-04T22:05:46.694Z,41.87
2019-01-04T22:08:15.406Z,41.60
2019-01-04T22:10:44.094Z,43.43
2019-01-04T22:13:12.833Z,41.80
2019-01-04T22:15:41.614Z,42.40
2019-01-04T22:18:10.362Z,41.83
2019-01-04T22:20:39.166Z,40.17
2019-01-04T22:23:07.941Z,41.43
2019-01-04T22:25:36.711Z,40.80
2019-01-04T22:28:05.453Z,43.00
2019-01-04T22:30:34.181Z,42.73
2019-01-04T22:33:02.894Z,41.13
2019-01-04T22:35:31.629Z,43.90
2019-01-04T22:38:00.338Z,45.10
2019-01-04T22:40:29.170Z,44.10
2019-01-04T22:42:57.992Z,42.67
2019-01-04T22:45:26.826Z,45.17
2019-01-04T22:47:55.589Z,43.80
2019-01-04T22:50:24.392Z,43.23
2019-01-04T22:52:53.089Z,44.57
2019-01-04T22:55:21.859Z,43.57
2019-01-04T22:57:50.563Z,42.97
2019-01-04T23:00:27.132Z,43.90
2019-01-04T23:02:55.915Z,45.27
2019-01-04T23:05:24.609Z,44.27
2019-01-04T23:07:53.331Z,45.67
2019-01-04T23:10:22.018Z,46.53
2019-01-04T23:12:50.813Z,45.00
2019-01-04T23:15:19.975Z,42.03
2019-01-04T23:17:48.770Z,46.47
2019-01-04T23:20:17.550Z,41.17
2019-01-04T23:22:46.287Z,42.43
2019-01-04T23:25:15.058Z,40.50
2019-01-04T23:27:43.796Z,41.37
2019-01-04T23:30:12.643Z,42.90
2019-01-04T23:32:41.441Z,44.20
2019-01-04T23:35:10.213Z,41.97
2019-01-04T23:37:39.103Z,38.80
2019-01-04T23:40:07.865Z,40.20
2019-01-04T23:42:36.606Z,41.40
2019-01-04T23:45:05.365Z,37.63
2019-01-04T23:47:34.223Z,40.97
2019-01-04T23:50:03.352Z,42.33
2019-01-04T23:52:32.152Z,38.50
2019-01-04T23:55:00.868Z,41.13
2019-01-04T23:57:29.550Z,40.50
2019-01-04T23:59:58.276Z,39.03
